createdAt,value
2017-07-09T00:00:52.020Z,0
2017-07-09T00:01:53.286Z,0
2017-07-09T00:02:54.552Z,0
2017-07-09T00:03:55.825Z,0
2017-07-09T00:04:57.062Z,0
2017-07-09T00:05:58.306Z,0
2017-07-09T00:06:59.543Z,0
2017-07-09T00:08:00.815Z,0
2017-07-09T00:09:02.072Z,0
2017-07-09T00:10:03.320Z,0
2017-07-09T00:11:04.579Z,0
2017-07-09T00:12:05.820Z,0
2017-07-09T00:13:07.081Z,0
2017-07-09T00:14:08.329Z,0
2017-07-09T00:15:09.632Z,0
2017-07-09T00:16:10.954Z,0
2017-07-09T00:17:12.192Z,0
2017-07-09T00:18:13.433Z,0
2017-07-09T00:19:14.682Z,0
2017-07-09T00:20:15.931Z,0
2017-07-09T00:21:17.195Z,0
2017-07-09T00:22:18.439Z,0
2017-07-09T00:23:19.740Z,0
2017-07-09T00:24:21.020Z,0
2017-07-09T00:25:22.244Z,0
2017-07-09T00:26:23.526Z,0
2017-07-09T00:27:24.756Z,0
2017-07-09T00:28:26.151Z,0
2017-07-09T00:29:27.404Z,0
2017-07-09T00:30:28.650Z,0
2017-07-09T00:31:29.898Z,0
2017-07-09T00:32:31.227Z,0
2017-07-09T00:33:32.368Z,0
2017-07-09T00:34:33.637Z,0
2017-07-09T00:35:34.889Z,0
2017-07-09T00:36:36.135Z,0
2017-07-09T00:37:37.378Z,0
2017-07-09T00:38:38.645Z,0
2017-07-09T00:39:39.894Z,0
2017-07-09T00:40:41.185Z,0
2017-07-09T00:41:42.423Z,0
2017-07-09T00:42:43.692Z,0
2017-07-09T00:43:44.921Z,0
2017-07-09T00:44:46.172Z,0
2017-07-09T00:45:47.438Z,0
2017-07-09T00:46:48.741Z,0
2017-07-09T00:47:49.976Z,0
2017-07-09T00:48:51.230Z,0
2017-07-09T00:49:52.472Z,0
2017-07-09T00:50:53.738Z,0
2017-07-09T00:51:54.940Z,0
2017-07-09T00:52:56.267Z,0
2017-07-09T00:53:57.606Z,0
2017-07-09T00:54:59.003Z,0
2017-07-09T00:56:00.228Z,0
2017-07-09T00:57:01.476Z,0
2017-07-09T00:58:02.752Z,0
2017-07-09T00:59:04.004Z,0
2017-07-09T01:00:05.249Z,0
2017-07-09T01:01:06.496Z,0
2017-07-09T01:02:07.742Z,0
2017-07-09T01:03:08.984Z,0
2017-07-09T01:04:10.271Z,0
2017-07-09T01:05:11.528Z,0
2017-07-09T01:06:12.825Z,0
2017-07-09T01:07:14.086Z,0
2017-07-09T01:08:15.346Z,0
2017-07-09T01:09:16.584Z,0
2017-07-09T01:10:17.841Z,0
2017-07-09T01:11:19.086Z,0
2017-07-09T01:12:20.445Z,0
2017-07-09T01:13:21.666Z,0
2017-07-09T01:14:22.919Z,0
2017-07-09T01:15:24.164Z,0
2017-07-09T01:16:25.554Z,0
2017-07-09T01:17:26.794Z,0
2017-07-09T01:18:28.040Z,0
2017-07-09T01:19:29.278Z,0
2017-07-09T01:20:30.535Z,0
2017-07-09T01:21:31.782Z,0
2017-07-09T01:22:33.051Z,0
2017-07-09T01:23:34.282Z,0
2017-07-09T01:24:35.552Z,0
2017-07-09T01:25:36.805Z,0
2017-07-09T01:26:38.053Z,0
2017-07-09T01:27:39.311Z,0
2017-07-09T01:28:40.540Z,0
2017-07-09T01:29:41.792Z,0
2017-07-09T01:30:43.024Z,0
2017-07-09T01:31:44.289Z,0
2017-07-09T01:32:45.533Z,0
2017-07-09T01:33:46.822Z,0
2017-07-09T01:34:48.208Z,0
2017-07-09T01:35:49.565Z,0
2017-07-09T01:36:50.770Z,0
2017-07-09T01:37:52.069Z,0
2017-07-09T01:38:53.368Z,0
2017-07-09T01:39:54.606Z,0
2017-07-09T01:40:55.834Z,0
2017-07-09T01:41:57.120Z,0
2017-07-09T01:42:58.346Z,0
2017-07-09T01:43:59.685Z,0
2017-07-09T01:45:01.049Z,0
2017-07-09T01:46:02.289Z,0
2017-07-09T01:47:03.537Z,0
2017-07-09T01:48:04.885Z,0
2017-07-09T01:49:06.152Z,0
2017-07-09T01:50:07.387Z,0
2017-07-09T01:51:08.632Z,0
2017-07-09T01:52:09.883Z,0
2017-07-09T01:53:11.252Z,0
2017-07-09T01:54:12.373Z,0
2017-07-09T01:55:13.762Z,0
2017-07-09T01:56:15.053Z,0
2017-07-09T01:57:16.302Z,0
2017-07-09T01:58:17.541Z,0
2017-07-09T01:59:18.783Z,0
2017-07-09T02:00:20.142Z,0
2017-07-09T02:01:21.444Z,0
2017-07-09T02:02:22.705Z,0
2017-07-09T02:03:23.967Z,0
2017-07-09T02:04:25.216Z,0
2017-07-09T02:05:26.511Z,0
2017-07-09T02:06:27.851Z,0
2017-07-09T02:07:29.099Z,0
2017-07-09T02:08:30.408Z,0
2017-07-09T02:09:31.653Z,0
2017-07-09T02:10:32.886Z,0
2017-07-09T02:11:34.233Z,0
2017-07-09T02:12:35.498Z,0
2017-07-09T02:13:36.839Z,0
2017-07-09T02:14:38.107Z,0
2017-07-09T02:15:39.441Z,0
2017-07-09T02:16:40.732Z,0
2017-07-09T02:17:41.974Z,0
2017-07-09T02:18:43.261Z,0
2017-07-09T02:19:44.511Z,0
2017-07-09T02:20:45.796Z,0
2017-07-09T02:21:47.047Z,0
2017-07-09T02:22:48.289Z,0
2017-07-09T02:23:49.527Z,0
2017-07-09T02:24:50.796Z,0
2017-07-09T02:25:52.137Z,0
2017-07-09T02:26:53.440Z,0
2017-07-09T02:27:54.691Z,0
2017-07-09T02:28:55.947Z,0
2017-07-09T02:29:57.251Z,0
2017-07-09T02:30:58.521Z,0
2017-07-09T02:31:59.765Z,0
2017-07-09T02:33:01.083Z,0
2017-07-09T02:34:02.330Z,0
2017-07-09T02:35:03.568Z,0
2017-07-09T02:36:04.816Z,0
2017-07-09T02:37:06.065Z,0
2017-07-09T02:38:07.387Z,0
2017-07-09T02:39:08.570Z,0
2017-07-09T02:40:09.800Z,0
2017-07-09T02:41:11.050Z,4
2017-07-09T02:42:12.316Z,4
2017-07-09T02:43:13.558Z,0
2017-07-09T02:44:14.818Z,0
2017-07-09T02:45:16.082Z,4
2017-07-09T02:46:17.340Z,4
2017-07-09T02:47:18.584Z,4
2017-07-09T02:48:19.832Z,8
2017-07-09T02:49:21.084Z,8
2017-07-09T02:50:22.346Z,8
2017-07-09T02:51:23.671Z,8
2017-07-09T02:52:24.881Z,12
2017-07-09T02:53:26.153Z,12
2017-07-09T02:54:27.497Z,12
2017-07-09T02:55:28.762Z,12
2017-07-09T02:56:29.997Z,12
2017-07-09T02:57:31.275Z,16
2017-07-09T02:58:32.544Z,16
2017-07-09T02:59:33.762Z,20
2017-07-09T03:00:35.010Z,24
2017-07-09T03:01:36.254Z,24
2017-07-09T03:02:37.490Z,28
2017-07-09T03:03:38.750Z,36
2017-07-09T03:04:39.982Z,44
2017-07-09T03:05:41.249Z,48
2017-07-09T03:06:42.489Z,56
2017-07-09T03:07:43.737Z,64
2017-07-09T03:08:45.044Z,68
2017-07-09T03:09:46.285Z,76
2017-07-09T03:10:47.532Z,84
2017-07-09T03:11:48.880Z,96
2017-07-09T03:12:50.072Z,108
2017-07-09T03:13:51.327Z,116
2017-07-09T03:14:52.583Z,128
2017-07-09T03:15:53.869Z,140
2017-07-09T03:16:55.116Z,152
2017-07-09T03:17:56.358Z,164
2017-07-09T03:18:57.606Z,172
2017-07-09T03:19:58.853Z,184
2017-07-09T03:21:00.152Z,184
2017-07-09T03:22:01.454Z,180
2017-07-09T03:23:02.730Z,172
2017-07-09T03:24:03.955Z,172
2017-07-09T03:25:05.221Z,172
2017-07-09T03:26:06.473Z,168
2017-07-09T03:27:07.731Z,168
2017-07-09T03:28:09.003Z,160
2017-07-09T03:29:10.228Z,152
2017-07-09T03:30:11.536Z,144
2017-07-09T03:31:12.801Z,156
2017-07-09T03:32:14.034Z,176
2017-07-09T03:33:15.283Z,200
2017-07-09T03:34:16.514Z,216
2017-07-09T03:35:17.761Z,232
2017-07-09T03:36:19.110Z,240
2017-07-09T03:37:20.358Z,264
2017-07-09T03:38:21.618Z,292
2017-07-09T03:39:22.861Z,304
2017-07-09T03:40:24.117Z,312
2017-07-09T03:41:25.395Z,316
2017-07-09T03:42:26.646Z,316
2017-07-09T03:43:27.905Z,308
2017-07-09T03:44:29.175Z,304
2017-07-09T03:45:30.446Z,292
2017-07-09T03:46:31.762Z,268
2017-07-09T03:47:33.041Z,244
2017-07-09T03:48:34.254Z,236
2017-07-09T03:49:35.607Z,252
2017-07-09T03:50:36.852Z,288
2017-07-09T03:51:38.169Z,336
2017-07-09T03:52:39.432Z,372
2017-07-09T03:53:40.676Z,408
2017-07-09T03:54:41.997Z,436
2017-07-09T03:55:43.194Z,456
2017-07-09T03:56:44.436Z,484
2017-07-09T03:57:45.689Z,524
2017-07-09T03:58:46.986Z,548
2017-07-09T03:59:48.239Z,560
2017-07-09T04:00:49.484Z,576
2017-07-09T04:01:50.740Z,588
2017-07-09T04:02:51.968Z,588
2017-07-09T04:03:53.235Z,604
2017-07-09T04:04:54.496Z,648
2017-07-09T04:05:55.888Z,740
2017-07-09T04:06:57.264Z,884
2017-07-09T04:07:58.506Z,988
2017-07-09T04:08:59.756Z,1016
2017-07-09T04:10:01.079Z,1052
2017-07-09T04:11:02.320Z,1112
2017-07-09T04:12:03.699Z,1220
2017-07-09T04:13:04.980Z,1376
2017-07-09T04:14:06.221Z,1496
2017-07-09T04:15:07.502Z,1588
2017-07-09T04:16:08.793Z,1684
2017-07-09T04:17:10.020Z,1816
2017-07-09T04:18:11.406Z,1896
2017-07-09T04:19:12.660Z,1992
2017-07-09T04:20:13.913Z,2140
2017-07-09T04:21:15.180Z,2320
2017-07-09T04:22:16.427Z,2448
2017-07-09T04:23:17.787Z,2660
2017-07-09T04:24:19.042Z,3012
2017-07-09T04:25:20.292Z,3436
2017-07-09T04:26:21.552Z,3728
2017-07-09T04:27:22.796Z,3920
2017-07-09T04:28:24.057Z,3956
2017-07-09T04:29:25.298Z,3832
2017-07-09T04:30:26.547Z,3732
2017-07-09T04:31:27.820Z,3800
2017-07-09T04:32:29.069Z,3940
2017-07-09T04:33:30.343Z,4064
2017-07-09T04:34:31.601Z,4144
2017-07-09T04:35:32.880Z,4224
2017-07-09T04:36:34.126Z,4232
2017-07-09T04:37:35.372Z,4200
2017-07-09T04:38:36.607Z,3956
2017-07-09T04:39:37.848Z,3744
2017-07-09T04:40:39.182Z,3616
2017-07-09T04:41:40.452Z,3504
2017-07-09T04:42:41.777Z,3316
2017-07-09T04:43:43.034Z,3172
2017-07-09T04:44:44.287Z,3108
2017-07-09T04:45:45.550Z,3108
2017-07-09T04:46:46.792Z,3088
2017-07-09T04:47:48.048Z,2868
2017-07-09T04:48:49.327Z,2528
2017-07-09T04:49:50.579Z,2360
2017-07-09T04:50:51.822Z,2312
2017-07-09T04:51:53.069Z,2312
2017-07-09T04:52:54.338Z,2324
2017-07-09T04:53:55.593Z,2332
2017-07-09T04:54:56.845Z,2340
2017-07-09T04:55:58.084Z,2348
2017-07-09T04:56:59.374Z,2308
2017-07-09T04:58:00.621Z,2252
2017-07-09T04:59:01.891Z,2264
2017-07-09T05:00:03.182Z,2372
2017-07-09T05:01:04.470Z,2608
2017-07-09T05:02:05.704Z,2932
2017-07-09T05:03:06.983Z,3280
2017-07-09T05:04:08.221Z,3596
2017-07-09T05:05:09.446Z,3972
2017-07-09T05:06:10.697Z,4288
2017-07-09T05:07:11.994Z,4452
2017-07-09T05:08:13.313Z,4504
2017-07-09T05:09:14.569Z,4756
2017-07-09T05:10:15.810Z,5212
2017-07-09T05:11:17.060Z,5888
2017-07-09T05:12:18.342Z,6492
2017-07-09T05:13:19.666Z,6588
2017-07-09T05:14:20.927Z,6664
2017-07-09T05:15:22.219Z,6632
2017-07-09T05:16:23.492Z,6648
2017-07-09T05:17:24.792Z,6668
2017-07-09T05:18:26.113Z,7112
2017-07-09T05:19:27.353Z,7860
2017-07-09T05:20:28.628Z,8448
2017-07-09T05:21:29.865Z,9344
2017-07-09T05:22:31.135Z,9876
2017-07-09T05:23:32.394Z,10132
2017-07-09T05:24:33.649Z,9212
2017-07-09T05:25:34.887Z,7436
2017-07-09T05:26:36.137Z,7496
2017-07-09T05:27:37.463Z,7800
2017-07-09T05:28:38.750Z,7988
2017-07-09T05:29:40.003Z,7912
2017-07-09T05:30:41.248Z,7588
2017-07-09T05:31:42.515Z,7296
2017-07-09T05:32:43.800Z,7132
2017-07-09T05:33:45.039Z,7216
2017-07-09T05:34:46.298Z,7632
2017-07-09T05:35:47.601Z,8168
2017-07-09T05:36:48.854Z,8420
2017-07-09T05:37:50.136Z,8460
2017-07-09T05:38:51.419Z,8552
2017-07-09T05:39:52.645Z,8840
2017-07-09T05:40:53.882Z,9240
2017-07-09T05:41:55.124Z,9936
2017-07-09T05:42:56.373Z,10892
2017-07-09T05:43:57.722Z,12012
2017-07-09T05:44:58.969Z,15936
2017-07-09T05:46:00.218Z,18144
2017-07-09T05:47:01.475Z,18464
2017-07-09T05:48:02.724Z,17888
2017-07-09T05:49:03.968Z,16480
2017-07-09T05:50:05.232Z,16128
2017-07-09T05:51:06.474Z,16544
2017-07-09T05:52:07.851Z,18368
2017-07-09T05:53:09.131Z,19584
2017-07-09T05:54:10.410Z,17248
2017-07-09T05:55:11.663Z,12640
2017-07-09T05:56:12.947Z,11140
2017-07-09T05:57:14.169Z,11104
2017-07-09T05:58:15.414Z,11932
2017-07-09T05:59:16.657Z,13324
2017-07-09T06:00:17.879Z,15196
2017-07-09T06:01:19.154Z,13424
2017-07-09T06:02:20.384Z,10836
2017-07-09T06:03:21.721Z,8824
2017-07-09T06:04:23.000Z,7636
2017-07-09T06:05:24.243Z,7020
2017-07-09T06:06:25.501Z,6884
2017-07-09T06:07:26.759Z,7064
2017-07-09T06:08:28.105Z,7480
2017-07-09T06:09:29.362Z,7972
2017-07-09T06:10:30.621Z,8552
2017-07-09T06:11:31.872Z,9232
2017-07-09T06:12:33.116Z,10100
2017-07-09T06:13:34.356Z,11100
2017-07-09T06:14:35.611Z,11604
2017-07-09T06:15:36.874Z,11568
2017-07-09T06:16:38.155Z,12056
2017-07-09T06:17:39.456Z,11012
2017-07-09T06:18:40.715Z,10704
2017-07-09T06:19:41.973Z,10120
2017-07-09T06:20:43.284Z,9544
2017-07-09T06:21:44.480Z,8856
2017-07-09T06:22:45.753Z,8208
2017-07-09T06:23:47.012Z,7532
2017-07-09T06:24:48.283Z,6472
2017-07-09T06:25:49.584Z,5544
2017-07-09T06:26:50.831Z,5000
2017-07-09T06:27:52.080Z,4764
2017-07-09T06:28:53.328Z,4716
2017-07-09T06:29:54.611Z,4848
2017-07-09T06:30:55.838Z,4984
2017-07-09T06:31:57.087Z,5424
2017-07-09T06:32:58.354Z,6196
2017-07-09T06:33:59.638Z,6864
2017-07-09T06:35:00.910Z,7816
2017-07-09T06:36:02.151Z,8916
2017-07-09T06:37:03.438Z,10032
2017-07-09T06:38:04.700Z,11268
2017-07-09T06:39:06.038Z,12212
2017-07-09T06:40:07.286Z,12716
2017-07-09T06:41:08.558Z,13008
2017-07-09T06:42:09.792Z,13076
2017-07-09T06:43:11.032Z,12724
2017-07-09T06:44:12.280Z,12752
2017-07-09T06:45:13.558Z,13288
2017-07-09T06:46:14.831Z,16960
2017-07-09T06:47:16.182Z,14520
2017-07-09T06:48:17.459Z,15100
2017-07-09T06:49:18.692Z,16100
2017-07-09T06:50:19.969Z,17824
2017-07-09T06:51:21.291Z,20960
2017-07-09T06:52:22.515Z,23808
2017-07-09T06:53:23.766Z,25760
2017-07-09T06:54:25.031Z,28576
2017-07-09T06:55:26.278Z,28640
2017-07-09T06:56:27.537Z,24480
2017-07-09T06:57:28.829Z,21856
2017-07-09T06:58:30.145Z,20928
2017-07-09T06:59:31.428Z,21248
2017-07-09T07:00:32.677Z,21312
2017-07-09T07:01:33.924Z,20512
2017-07-09T07:02:35.196Z,19392
2017-07-09T07:03:36.438Z,18720
2017-07-09T07:04:37.729Z,18784
2017-07-09T07:05:38.983Z,19168
2017-07-09T07:06:40.246Z,19744
2017-07-09T07:07:41.479Z,20704
2017-07-09T07:08:42.746Z,21184
2017-07-09T07:09:43.989Z,21088
2017-07-09T07:10:45.238Z,21120
2017-07-09T07:11:46.553Z,21120
2017-07-09T07:12:47.960Z,21568
2017-07-09T07:13:49.192Z,22048
2017-07-09T07:14:50.444Z,22784
2017-07-09T07:15:51.763Z,22176
2017-07-09T07:16:53.014Z,23168
2017-07-09T07:17:54.318Z,22944
2017-07-09T07:18:55.600Z,24576
2017-07-09T07:19:56.847Z,26944
2017-07-09T07:20:58.111Z,27840
2017-07-09T07:21:59.352Z,28000
2017-07-09T07:23:00.613Z,27712
2017-07-09T07:24:01.871Z,29696
2017-07-09T07:25:03.230Z,42336
2017-07-09T07:26:04.481Z,38144
2017-07-09T07:27:05.758Z,38016
2017-07-09T07:28:07.068Z,58208
2017-07-09T07:29:08.406Z,36128
2017-07-09T07:30:09.707Z,36992
2017-07-09T07:31:10.956Z,33408
2017-07-09T07:32:12.211Z,36000
2017-07-09T07:33:13.518Z,36640
2017-07-09T07:34:14.822Z,38176
2017-07-09T07:35:16.129Z,38528
2017-07-09T07:36:17.462Z,40736
2017-07-09T07:37:18.699Z,37920
2017-07-09T07:38:20.027Z,37856
2017-07-09T07:39:21.385Z,45632
2017-07-09T07:40:22.731Z,40064
2017-07-09T07:41:24.015Z,45664
2017-07-09T07:42:25.271Z,41600
2017-07-09T07:43:26.526Z,45504
2017-07-09T07:44:27.770Z,38592
2017-07-09T07:45:29.045Z,35488
2017-07-09T07:46:30.416Z,35616
2017-07-09T07:47:31.657Z,35232
2017-07-09T07:48:32.938Z,37184
2017-07-09T07:49:34.197Z,43488
2017-07-09T07:50:35.583Z,38112
2017-07-09T07:51:36.817Z,45984
2017-07-09T07:52:38.076Z,44960
2017-07-09T07:53:39.355Z,44832
2017-07-09T07:54:40.616Z,35456
2017-07-09T07:55:41.865Z,33216
2017-07-09T07:56:43.255Z,31968
2017-07-09T07:57:44.516Z,32160
2017-07-09T07:58:45.799Z,33056
2017-07-09T07:59:47.057Z,30592
2017-07-09T08:00:48.336Z,30048
2017-07-09T08:01:49.615Z,33504
2017-07-09T08:02:50.865Z,37696
2017-07-09T08:03:52.123Z,44544
2017-07-09T08:04:53.446Z,43392
2017-07-09T08:05:54.693Z,46688
2017-07-09T08:06:55.965Z,48352
2017-07-09T08:07:57.218Z,43328
2017-07-09T08:08:58.464Z,47936
2017-07-09T08:09:59.715Z,65056
2017-07-09T08:11:01.115Z,63456
2017-07-09T08:12:02.348Z,44288
2017-07-09T08:13:03.609Z,44704
2017-07-09T08:14:04.867Z,36128
2017-07-09T08:15:06.124Z,35040
2017-07-09T08:16:07.382Z,33696
2017-07-09T08:17:08.824Z,37824
2017-07-09T08:18:10.059Z,30272
2017-07-09T08:19:11.341Z,27072
2017-07-09T08:20:12.650Z,25024
2017-07-09T08:21:13.919Z,23968
2017-07-09T08:22:15.167Z,23136
2017-07-09T08:23:16.476Z,22688
2017-07-09T08:24:17.774Z,22368
2017-07-09T08:25:19.003Z,21952
2017-07-09T08:26:20.294Z,21632
2017-07-09T08:27:21.600Z,21184
2017-07-09T08:28:22.845Z,21536
2017-07-09T08:29:24.191Z,22720
2017-07-09T08:30:25.460Z,24320
2017-07-09T08:31:26.708Z,25120
2017-07-09T08:32:27.966Z,26560
2017-07-09T08:33:29.255Z,27136
2017-07-09T08:34:30.519Z,26816
2017-07-09T08:35:31.797Z,26752
2017-07-09T08:36:33.035Z,26656
2017-07-09T08:37:34.309Z,26688
2017-07-09T08:38:35.674Z,25376
2017-07-09T08:39:37.008Z,24288
2017-07-09T08:40:38.168Z,23616
2017-07-09T08:41:39.496Z,22624
2017-07-09T08:42:40.738Z,21568
2017-07-09T08:43:41.989Z,20288
2017-07-09T08:44:43.360Z,19584
2017-07-09T08:45:44.553Z,19104
2017-07-09T08:46:45.871Z,19040
2017-07-09T08:47:47.097Z,19296
2017-07-09T08:48:48.354Z,19712
2017-07-09T08:49:49.633Z,20064
2017-07-09T08:50:50.884Z,20352
2017-07-09T08:51:52.177Z,20512
2017-07-09T08:52:53.461Z,20704
2017-07-09T08:53:54.719Z,21184
2017-07-09T08:54:55.976Z,21984
2017-07-09T08:55:57.248Z,23296
2017-07-09T08:56:58.586Z,26912
2017-07-09T08:58:00.063Z,26272
2017-07-09T08:59:01.322Z,27072
2017-07-09T09:00:02.582Z,29152
2017-07-09T09:01:03.845Z,32736
2017-07-09T09:02:05.129Z,37504
2017-07-09T09:03:06.443Z,37056
2017-07-09T09:04:07.821Z,35232
2017-07-09T09:05:09.117Z,35520
2017-07-09T09:06:10.367Z,35744
2017-07-09T09:07:11.662Z,37504
2017-07-09T09:08:12.907Z,35488
2017-07-09T09:09:14.192Z,35168
2017-07-09T09:10:15.453Z,36224
2017-07-09T09:11:16.715Z,35520
2017-07-09T09:12:17.982Z,37184
2017-07-09T09:13:19.288Z,50816
2017-07-09T09:14:20.509Z,89504
2017-07-09T09:15:21.782Z,85696
2017-07-09T09:16:23.066Z,88096
2017-07-09T09:17:24.323Z,86432
2017-07-09T09:18:25.587Z,86208
2017-07-09T09:19:26.852Z,86464
2017-07-09T09:20:28.110Z,87744
2017-07-09T09:21:29.381Z,89728
2017-07-09T09:22:30.665Z,91680
2017-07-09T09:23:31.896Z,90592
2017-07-09T09:24:33.168Z,88992
2017-07-09T09:25:34.431Z,90176
2017-07-09T09:26:35.696Z,89824
2017-07-09T09:27:37.093Z,87616
2017-07-09T09:28:38.344Z,88384
2017-07-09T09:29:39.633Z,83520
2017-07-09T09:30:40.941Z,85664
2017-07-09T09:31:42.175Z,83968
2017-07-09T09:32:43.499Z,79264
2017-07-09T09:33:44.765Z,78016
2017-07-09T09:34:46.030Z,60864
2017-07-09T09:35:47.316Z,91424
2017-07-09T09:36:48.580Z,87264
2017-07-09T09:37:49.858Z,96160
2017-07-09T09:38:51.117Z,93728
2017-07-09T09:39:52.437Z,93376
2017-07-09T09:40:53.708Z,89408
2017-07-09T09:41:54.972Z,90336
2017-07-09T09:42:56.230Z,95520
2017-07-09T09:43:57.604Z,101440
2017-07-09T09:44:58.763Z,102752
2017-07-09T09:46:00.029Z,99264
2017-07-09T09:47:01.344Z,99808
2017-07-09T09:48:02.611Z,98400
2017-07-09T09:49:03.870Z,95968
2017-07-09T09:50:05.134Z,93632
2017-07-09T09:51:06.448Z,81760
2017-07-09T09:52:07.846Z,86144
2017-07-09T09:53:09.072Z,87424
2017-07-09T09:54:10.351Z,83040
2017-07-09T09:55:11.608Z,80192
2017-07-09T09:56:12.891Z,44608
2017-07-09T09:57:14.322Z,46592
2017-07-09T09:58:15.692Z,35104
2017-07-09T09:59:16.956Z,22880
2017-07-09T10:00:18.236Z,19936
2017-07-09T10:01:19.549Z,19296
2017-07-09T10:02:20.802Z,19200
2017-07-09T10:03:22.172Z,18976
2017-07-09T10:04:23.511Z,17920
2017-07-09T10:05:24.799Z,16896
2017-07-09T10:06:26.042Z,16928
2017-07-09T10:07:27.383Z,19296
2017-07-09T10:08:28.580Z,40256
2017-07-09T10:09:29.872Z,35264
2017-07-09T10:10:31.125Z,25472
2017-07-09T10:11:32.386Z,60416
2017-07-09T10:12:33.668Z,49920
2017-07-09T10:13:34.917Z,29728
2017-07-09T10:14:36.274Z,56416
2017-07-09T10:15:37.642Z,35200
2017-07-09T10:16:38.875Z,45120
2017-07-09T10:17:40.130Z,28928
2017-07-09T10:18:41.403Z,66784
2017-07-09T10:19:42.661Z,26272
2017-07-09T10:20:44.037Z,24672
2017-07-09T10:21:45.360Z,23008
2017-07-09T10:22:46.642Z,21056
2017-07-09T10:23:47.864Z,23040
2017-07-09T10:24:49.141Z,23552
2017-07-09T10:25:50.383Z,23232
2017-07-09T10:26:51.674Z,22784
2017-07-09T10:27:52.910Z,23296
2017-07-09T10:28:54.207Z,24224
2017-07-09T10:29:55.451Z,29728
2017-07-09T10:30:56.717Z,27136
2017-07-09T10:31:58.005Z,21312
2017-07-09T10:32:59.247Z,19232
2017-07-09T10:34:00.498Z,17888
2017-07-09T10:35:01.764Z,15728
2017-07-09T10:36:03.023Z,16992
2017-07-09T10:37:04.320Z,17504
2017-07-09T10:38:05.552Z,17536
2017-07-09T10:39:06.924Z,17824
2017-07-09T10:40:08.194Z,17536
2017-07-09T10:41:09.550Z,17760
2017-07-09T10:42:10.813Z,17728
2017-07-09T10:43:12.072Z,17472
2017-07-09T10:44:13.383Z,15692
2017-07-09T10:45:14.639Z,15320
2017-07-09T10:46:16.051Z,15744
2017-07-09T10:47:17.326Z,16608
2017-07-09T10:48:18.601Z,17440
2017-07-09T10:49:19.853Z,18144
2017-07-09T10:50:21.131Z,19424
2017-07-09T10:51:22.390Z,20000
2017-07-09T10:52:23.651Z,20576
2017-07-09T10:53:24.902Z,21024
2017-07-09T10:54:26.198Z,21248
2017-07-09T10:55:27.447Z,20192
2017-07-09T10:56:28.724Z,19840
2017-07-09T10:57:30.003Z,19168
2017-07-09T10:58:31.251Z,17920
2017-07-09T10:59:32.533Z,17696
2017-07-09T11:00:33.759Z,17472
2017-07-09T11:01:35.016Z,17728
2017-07-09T11:02:36.269Z,18528
2017-07-09T11:03:37.524Z,20192
2017-07-09T11:04:38.778Z,20704
2017-07-09T11:05:40.028Z,20768
2017-07-09T11:06:41.285Z,19744
2017-07-09T11:07:42.572Z,18464
2017-07-09T11:08:43.913Z,16556
2017-07-09T11:09:45.187Z,16432
2017-07-09T11:10:46.429Z,15704
2017-07-09T11:11:47.688Z,14992
2017-07-09T11:12:48.949Z,14476
2017-07-09T11:13:50.216Z,15268
2017-07-09T11:14:51.484Z,15192
2017-07-09T11:15:52.756Z,15828
2017-07-09T11:16:54.011Z,18560
2017-07-09T11:17:55.286Z,20416
2017-07-09T11:18:56.629Z,20832
2017-07-09T11:19:57.910Z,19904
2017-07-09T11:20:59.141Z,18784
2017-07-09T11:22:00.399Z,18016
2017-07-09T11:23:01.660Z,17120
2017-07-09T11:24:02.918Z,15984
2017-07-09T11:25:04.186Z,14564
2017-07-09T11:26:05.529Z,15104
2017-07-09T11:27:06.944Z,16784
2017-07-09T11:28:08.237Z,18592
2017-07-09T11:29:09.526Z,18080
2017-07-09T11:30:10.776Z,16360
2017-07-09T11:31:12.059Z,14656
2017-07-09T11:32:13.343Z,14356
2017-07-09T11:33:14.608Z,12380
2017-07-09T11:34:15.969Z,12556
2017-07-09T11:35:17.198Z,14208
2017-07-09T11:36:18.456Z,15356
2017-07-09T11:37:19.715Z,15504
2017-07-09T11:38:20.975Z,14680
2017-07-09T11:39:22.242Z,13712
2017-07-09T11:40:23.494Z,12832
2017-07-09T11:41:24.739Z,12592
2017-07-09T11:42:26.013Z,13552
2017-07-09T11:43:27.283Z,15140
2017-07-09T11:44:28.519Z,16448
2017-07-09T11:45:29.970Z,16080
2017-07-09T11:46:31.237Z,16456
2017-07-09T11:47:32.550Z,16516
2017-07-09T11:48:33.821Z,16568
2017-07-09T11:49:35.155Z,16368
2017-07-09T11:50:36.399Z,16784
2017-07-09T11:51:37.650Z,17376
2017-07-09T11:52:38.902Z,15832
2017-07-09T11:53:40.153Z,13328
2017-07-09T11:54:41.407Z,12768
2017-07-09T11:55:42.694Z,14264
2017-07-09T11:56:43.937Z,15400
2017-07-09T11:57:45.245Z,16592
2017-07-09T11:58:46.500Z,16232
2017-07-09T11:59:47.753Z,15028
2017-07-09T12:00:49.001Z,13892
2017-07-09T12:01:50.273Z,13608
2017-07-09T12:02:51.530Z,13860
2017-07-09T12:03:52.836Z,12860
2017-07-09T12:04:54.069Z,12960
2017-07-09T12:05:55.329Z,12992
2017-07-09T12:06:56.609Z,13432
2017-07-09T12:07:57.865Z,13764
2017-07-09T12:08:59.174Z,13740
2017-07-09T12:10:00.445Z,13900
2017-07-09T12:11:01.736Z,13916
2017-07-09T12:12:02.991Z,15096
2017-07-09T12:13:04.246Z,15832
2017-07-09T12:14:05.549Z,15664
2017-07-09T12:15:06.772Z,15104
2017-07-09T12:16:08.097Z,13412
2017-07-09T12:17:09.377Z,13888
2017-07-09T12:18:10.624Z,13716
2017-07-09T12:19:11.898Z,13988
2017-07-09T12:20:13.187Z,13588
2017-07-09T12:21:14.444Z,13720
2017-07-09T12:22:15.731Z,14324
2017-07-09T12:23:16.985Z,14168
2017-07-09T12:24:18.229Z,13900
2017-07-09T12:25:19.506Z,14168
2017-07-09T12:26:20.750Z,14636
2017-07-09T12:27:22.198Z,14708
2017-07-09T12:28:23.465Z,14168
2017-07-09T12:29:24.712Z,13560
2017-07-09T12:30:25.965Z,13608
2017-07-09T12:31:27.255Z,13904
2017-07-09T12:32:28.482Z,15096
2017-07-09T12:33:29.799Z,15608
2017-07-09T12:34:31.069Z,15624
2017-07-09T12:35:32.316Z,15548
2017-07-09T12:36:33.586Z,15360
2017-07-09T12:37:34.830Z,14732
2017-07-09T12:38:36.085Z,14324
2017-07-09T12:39:37.368Z,14464
2017-07-09T12:40:38.603Z,14660
2017-07-09T12:41:39.904Z,15132
2017-07-09T12:42:41.164Z,14612
2017-07-09T12:43:42.431Z,13440
2017-07-09T12:44:43.770Z,13248
2017-07-09T12:45:45.104Z,13176
2017-07-09T12:46:46.389Z,12996
2017-07-09T12:47:47.668Z,12436
2017-07-09T12:48:48.927Z,12256
2017-07-09T12:49:50.207Z,12448
2017-07-09T12:50:51.449Z,12216
2017-07-09T12:51:52.705Z,12344
2017-07-09T12:52:54.015Z,12212
2017-07-09T12:53:55.282Z,11772
2017-07-09T12:54:56.690Z,11756
2017-07-09T12:55:57.961Z,11372
2017-07-09T12:56:59.262Z,10964
2017-07-09T12:58:00.518Z,10816
2017-07-09T12:59:01.787Z,11644
2017-07-09T13:00:03.047Z,13292
2017-07-09T13:01:04.305Z,14672
2017-07-09T13:02:05.569Z,15020
2017-07-09T13:03:06.834Z,14972
2017-07-09T13:04:08.152Z,14916
2017-07-09T13:05:09.444Z,14364
2017-07-09T13:06:10.712Z,14352
2017-07-09T13:07:12.070Z,13732
2017-07-09T13:08:13.342Z,12984
2017-07-09T13:09:14.586Z,12712
2017-07-09T13:10:15.847Z,12116
2017-07-09T13:11:17.109Z,11320
2017-07-09T13:12:18.353Z,11136
2017-07-09T13:13:19.626Z,10872
2017-07-09T13:14:20.873Z,10672
2017-07-09T13:15:22.159Z,10452
2017-07-09T13:16:23.419Z,10340
2017-07-09T13:17:24.692Z,11200
2017-07-09T13:18:25.967Z,11620
2017-07-09T13:19:27.198Z,11456
2017-07-09T13:20:28.477Z,11624
2017-07-09T13:21:29.739Z,12132
2017-07-09T13:22:30.997Z,12112
2017-07-09T13:23:32.256Z,11824
2017-07-09T13:24:33.508Z,11392
2017-07-09T13:25:34.750Z,11112
2017-07-09T13:26:36.043Z,10608
2017-07-09T13:27:37.316Z,10400
2017-07-09T13:28:38.567Z,10900
2017-07-09T13:29:39.895Z,11240
2017-07-09T13:30:41.117Z,11660
2017-07-09T13:31:42.371Z,10768
2017-07-09T13:32:43.627Z,10416
2017-07-09T13:33:44.898Z,10448
2017-07-09T13:34:46.165Z,10108
2017-07-09T13:35:47.392Z,10200
2017-07-09T13:36:48.642Z,10336
2017-07-09T13:37:49.903Z,9796
2017-07-09T13:38:51.149Z,9256
2017-07-09T13:39:52.438Z,9724
2017-07-09T13:40:53.687Z,10540